Chester, South Dakota
Current Conditions -  °F | °C
As of 11:15 AM on Thursday 27 Nov 2014 (Local Time) from KMDS Reporting Station
Clear Clear  
Wind Chill: -9°   Ceiling: Unl
Heat Index:   Visibility: 10mi
Dew Point: -4°   Wind: 9mph
Humidity: 66%   Direction: 160°SSE
Pressure: 30.41"   Gusts: NA
Location:  43.89°N, 96.93°W
Report Text: KMDS 271715Z AUTO 16008KT 10SM CLR M15/M20 A3041 RMK AO2
Loading
Personal Weather Stations






























Interactive Weather Map New forecast layout! Learn more

10-Day Weather Forecast

Advertisements
Track Severe Weather on mobile